sensor_id;sensor_type;location;lat;lon;timestamp;noise_LAeq;noise_LA_min;noise_LA_max;noise_LA01;noise_LA95
60031;Laerm;45901;47.600;9.890;2023-02-13T00:00:43;40.52;37.32;45.75;;
60031;Laerm;45901;47.600;9.890;2023-02-13T00:03:13;40.27;37.88;41.89;;
60031;Laerm;45901;47.600;9.890;2023-02-13T00:05:40;40.26;38.21;41.89;;
60031;Laerm;45901;47.600;9.890;2023-02-13T00:08:08;40.33;37.88;42.09;;
60031;Laerm;45901;47.600;9.890;2023-02-13T00:10:36;40.26;37.88;42.03;;
60031;Laerm;45901;47.600;9.890;2023-02-13T00:13:03;40.40;38.37;42.42;;
60031;Laerm;45901;47.600;9.890;2023-02-13T00:15:30;40.41;38.05;45.39;;
60031;Laerm;45901;47.600;9.890;2023-02-13T00:17:57;40.35;37.70;42.35;;
60031;Laerm;45901;47.600;9.890;2023-02-13T00:20:26;40.28;38.05;42.16;;
60031;Laerm;45901;47.600;9.890;2023-02-13T00:22:53;40.30;38.05;41.96;;
60031;Laerm;45901;47.600;9.890;2023-02-13T00:25:20;40.39;38.05;42.22;;
60031;Laerm;45901;47.600;9.890;2023-02-13T00:27:49;40.24;37.88;42.09;;
60031;Laerm;45901;47.600;9.890;2023-02-13T00:30:17;40.31;38.21;45.17;;
60031;Laerm;45901;47.600;9.890;2023-02-13T00:32:44;40.36;38.21;43.04;;
60031;Laerm;45901;47.600;9.890;2023-02-13T00:35:11;40.44;38.21;42.16;;
60031;Laerm;45901;47.600;9.890;2023-02-13T00:37:40;40.32;38.21;41.96;;
60031;Laerm;45901;47.600;9.890;2023-02-13T00:40:08;40.36;37.70;42.09;;
60031;Laerm;45901;47.600;9.890;2023-02-13T00:42:35;40.43;38.21;42.09;;
60031;Laerm;45901;47.600;9.890;2023-02-13T00:45:03;40.40;38.37;42.53;;
60031;Laerm;45901;47.600;9.890;2023-02-13T00:47:31;40.41;38.21;45.51;;
60031;Laerm;45901;47.600;9.890;2023-02-13T00:49:58;40.38;38.05;42.93;;
60031;Laerm;45901;47.600;9.890;2023-02-13T00:52:25;40.31;37.88;45.48;;
60031;Laerm;45901;47.600;9.890;2023-02-13T00:54:54;40.25;37.88;41.89;;
60031;Laerm;45901;47.600;9.890;2023-02-13T00:57:22;40.32;38.21;42.16;;
60031;Laerm;45901;47.600;9.890;2023-02-13T00:59:49;40.51;38.05;45.66;;
60031;Laerm;45901;47.600;9.890;2023-02-13T01:02:16;40.56;38.21;45.27;;
60031;Laerm;45901;47.600;9.890;2023-02-13T01:04:43;40.36;38.21;42.35;;
60031;Laerm;45901;47.600;9.890;2023-02-13T01:07:10;40.30;38.37;42.29;;
60031;Laerm;45901;47.600;9.890;2023-02-13T01:09:37;40.23;38.21;42.03;;
60031;Laerm;45901;47.600;9.890;2023-02-13T01:12:06;40.27;38.21;42.03;;
60031;Laerm;45901;47.600;9.890;2023-02-13T01:14:34;40.21;37.88;42.03;;
60031;Laerm;45901;47.600;9.890;2023-02-13T01:17:01;40.62;38.37;45.07;;
60031;Laerm;45901;47.600;9.890;2023-02-13T01:19:28;40.57;38.37;42.36;;
60031;Laerm;45901;47.600;9.890;2023-02-13T01:21:55;40.55;38.21;42.47;;
60031;Laerm;45901;47.600;9.890;2023-02-13T01:24:22;40.60;38.52;42.53;;
60031;Laerm;45901;47.600;9.890;2023-02-13T01:26:49;40.51;38.21;42.71;;
60031;Laerm;45901;47.600;9.890;2023-02-13T01:29:18;40.57;38.52;42.53;;
60031;Laerm;45901;47.600;9.890;2023-02-13T01:31:45;40.71;38.32;45.51;;
60031;Laerm;45901;47.600;9.890;2023-02-13T01:34:12;40.62;38.05;42.22;;
60031;Laerm;45901;47.600;9.890;2023-02-13T01:36:39;40.63;38.21;42.98;;
60031;Laerm;45901;47.600;9.890;2023-02-13T01:39:09;40.54;38.21;44.51;;
60031;Laerm;45901;47.600;9.890;2023-02-13T01:41:37;40.50;38.32;42.22;;
60031;Laerm;45901;47.600;9.890;2023-02-13T01:44:46;40.42;38.21;42.29;;
60031;Laerm;45901;47.600;9.890;2023-02-13T01:47:20;40.51;38.37;44.54;;
60031;Laerm;45901;47.600;9.890;2023-02-13T01:49:50;40.49;38.05;42.29;;
60031;Laerm;45901;47.600;9.890;2023-02-13T01:52:20;40.51;37.70;42.22;;
60031;Laerm;45901;47.600;9.890;2023-02-13T01:54:47;40.49;38.37;42.41;;
60031;Laerm;45901;47.600;9.890;2023-02-13T01:57:18;40.56;37.70;42.35;;
60031;Laerm;45901;47.600;9.890;2023-02-13T01:59:54;40.73;38.52;45.04;;
60031;Laerm;45901;47.600;9.890;2023-02-13T02:02:23;40.56;38.52;45.11;;
60031;Laerm;45901;47.600;9.890;2023-02-13T02:04:52;40.61;38.05;43.29;;
60031;Laerm;45901;47.600;9.890;2023-02-13T02:07:22;40.70;38.37;42.93;;
60031;Laerm;45901;47.600;9.890;2023-02-13T02:09:52;40.56;38.52;42.98;;
60031;Laerm;45901;47.600;9.890;2023-02-13T02:12:25;40.38;38.21;42.09;;
60031;Laerm;45901;47.600;9.890;2023-02-13T02:14:58;40.45;38.37;44.42;;
60031;Laerm;45901;47.600;9.890;2023-02-13T02:17:26;40.39;38.18;42.22;;
60031;Laerm;45901;47.600;9.890;2023-02-13T02:20:04;40.41;38.05;42.93;;
60031;Laerm;45901;47.600;9.890;2023-02-13T02:23:14;40.42;38.05;42.82;;
60031;Laerm;45901;47.600;9.890;2023-02-13T02:26:24;40.44;38.47;43.19;;
60031;Laerm;45901;47.600;9.890;2023-02-13T02:32:50;40.55;38.21;44.83;;
60031;Laerm;45901;47.600;9.890;2023-02-13T02:35:32;40.63;38.37;42.13;;
60031;Laerm;45901;47.600;9.890;2023-02-13T02:38:13;40.75;38.81;42.35;;
60031;Laerm;45901;47.600;9.890;2023-02-13T02:40:54;40.84;38.52;42.47;;
60031;Laerm;45901;47.600;9.890;2023-02-13T02:43:39;41.06;39.08;43.63;;
60031;Laerm;45901;47.600;9.890;2023-02-13T02:46:16;41.19;39.21;44.27;;
60031;Laerm;45901;47.600;9.890;2023-02-13T02:48:52;41.21;39.34;45.83;;
60031;Laerm;45901;47.600;9.890;2023-02-13T02:51:45;41.23;39.21;45.63;;
60031;Laerm;45901;47.600;9.890;2023-02-13T02:54:20;41.23;39.21;42.82;;
60031;Laerm;45901;47.600;9.890;2023-02-13T02:57:12;41.28;39.34;42.76;;
60031;Laerm;45901;47.600;9.890;2023-02-13T02:59:43;41.25;39.34;43.94;;
60031;Laerm;45901;47.600;9.890;2023-02-13T03:02:30;41.28;39.34;43.99;;
60031;Laerm;45901;47.600;9.890;2023-02-13T03:05:21;41.19;39.21;42.65;;
60031;Laerm;45901;47.600;9.890;2023-02-13T03:08:08;41.26;39.58;42.65;;
60031;Laerm;45901;47.600;9.890;2023-02-13T03:10:37;41.31;39.34;43.44;;
60031;Laerm;45901;47.600;9.890;2023-02-13T03:13:38;41.28;39.58;42.82;;
60031;Laerm;45901;47.600;9.890;2023-02-13T03:16:10;41.20;39.46;46.95;;
60031;Laerm;45901;47.600;9.890;2023-02-13T03:18:57;41.17;38.95;48.02;;
60031;Laerm;45901;47.600;9.890;2023-02-13T03:21:47;41.17;39.34;42.76;;
60031;Laerm;45901;47.600;9.890;2023-02-13T03:24:43;41.19;39.34;42.53;;
60031;Laerm;45901;47.600;9.890;2023-02-13T03:27:20;41.25;39.58;42.65;;
60031;Laerm;45901;47.600;9.890;2023-02-13T03:30:18;41.36;39.70;43.89;;
60031;Laerm;45901;47.600;9.890;2023-02-13T03:32:58;41.42;39.70;42.65;;
60031;Laerm;45901;47.600;9.890;2023-02-13T03:35:36;41.46;39.81;42.93;;
60031;Laerm;45901;47.600;9.890;2023-02-13T03:38:32;41.57;40.13;42.93;;
60031;Laerm;45901;47.600;9.890;2023-02-13T03:41:05;41.57;40.03;42.88;;
60031;Laerm;45901;47.600;9.890;2023-02-13T03:43:57;41.78;40.23;59.01;;
60031;Laerm;45901;47.600;9.890;2023-02-13T03:46:32;41.81;40.33;43.63;;
60031;Laerm;45901;47.600;9.890;2023-02-13T03:49:03;41.73;40.23;43.04;;
60031;Laerm;45901;47.600;9.890;2023-02-13T03:51:53;41.66;40.13;43.04;;
60031;Laerm;45901;47.600;9.890;2023-02-13T03:54:32;41.73;39.70;44.73;;
60031;Laerm;45901;47.600;9.890;2023-02-13T03:57:20;41.76;40.23;44.83;;
60031;Laerm;45901;47.600;9.890;2023-02-13T04:00:11;41.57;39.92;43.24;;
60031;Laerm;45901;47.600;9.890;2023-02-13T04:02:47;41.49;39.92;43.09;;
60031;Laerm;45901;47.600;9.890;2023-02-13T04:05:21;41.57;40.13;43.04;;
60031;Laerm;45901;47.600;9.890;2023-02-13T04:07:50;41.61;40.23;42.88;;
60031;Laerm;45901;47.600;9.890;2023-02-13T04:10:20;41.54;39.92;43.39;;
60031;Laerm;45901;47.600;9.890;2023-02-13T04:12:56;41.42;39.92;42.71;;
60031;Laerm;45901;47.600;9.890;2023-02-13T04:15:30;41.39;39.81;42.71;;
60031;Laerm;45901;47.600;9.890;2023-02-13T04:18:06;41.35;39.70;42.71;;
60031;Laerm;45901;47.600;9.890;2023-02-13T04:20:35;41.30;39.70;42.53;;
60031;Laerm;45901;47.600;9.890;2023-02-13T04:23:05;41.30;39.46;42.71;;
60031;Laerm;45901;47.600;9.890;2023-02-13T04:25:35;41.40;39.70;44.15;;
60031;Laerm;45901;47.600;9.890;2023-02-13T04:28:03;41.28;39.58;44.69;;
60031;Laerm;45901;47.600;9.890;2023-02-13T04:30:30;41.38;39.70;44.73;;
60031;Laerm;45901;47.600;9.890;2023-02-13T04:32:58;41.35;39.58;44.31;;
60031;Laerm;45901;47.600;9.890;2023-02-13T04:35:25;41.31;39.58;43.44;;
60031;Laerm;45901;47.600;9.890;2023-02-13T04:37:52;41.35;39.57;43.39;;
60031;Laerm;45901;47.600;9.890;2023-02-13T04:40:19;41.32;39.70;43.05;;
60031;Laerm;45901;47.600;9.890;2023-02-13T04:42:48;42.07;39.58;48.92;;
60031;Laerm;45901;47.600;9.890;2023-02-13T04:45:16;42.40;40.53;50.34;;
60031;Laerm;45901;47.600;9.890;2023-02-13T04:47:49;42.26;40.33;46.52;;
60031;Laerm;45901;47.600;9.890;2023-02-13T04:50:17;42.29;40.43;49.02;;
60031;Laerm;45901;47.600;9.890;2023-02-13T04:52:45;42.27;40.43;47.67;;
60031;Laerm;45901;47.600;9.890;2023-02-13T04:55:12;42.27;40.33;47.08;;
60031;Laerm;45901;47.600;9.890;2023-02-13T04:57:39;42.32;40.43;46.10;;
60031;Laerm;45901;47.600;9.890;2023-02-13T05:00:10;42.24;40.33;49.44;;
60031;Laerm;45901;47.600;9.890;2023-02-13T05:02:37;42.17;40.13;51.54;;
60031;Laerm;45901;47.600;9.890;2023-02-13T05:05:05;42.15;40.13;50.56;;
60031;Laerm;45901;47.600;9.890;2023-02-13T05:07:32;42.09;40.23;48.92;;
60031;Laerm;45901;47.600;9.890;2023-02-13T05:09:59;41.96;40.03;47.22;;
60031;Laerm;45901;47.600;9.890;2023-02-13T05:12:26;41.95;40.23;47.50;;
60031;Laerm;45901;47.600;9.890;2023-02-13T05:14:53;42.04;40.23;50.96;;
60031;Laerm;45901;47.600;9.890;2023-02-13T05:17:22;42.08;39.92;48.57;;
60031;Laerm;45901;47.600;9.890;2023-02-13T05:19:49;41.95;40.03;45.07;;
60031;Laerm;45901;47.600;9.890;2023-02-13T05:22:16;41.96;40.18;47.28;;
60031;Laerm;45901;47.600;9.890;2023-02-13T05:25:00;41.87;39.92;45.39;;
60031;Laerm;45901;47.600;9.890;2023-02-13T05:27:28;41.87;39.70;46.35;;
60031;Laerm;45901;47.600;9.890;2023-02-13T05:29:55;41.89;40.03;49.08;;
60031;Laerm;45901;47.600;9.890;2023-02-13T05:32:23;41.88;39.81;45.57;;
60031;Laerm;45901;47.600;9.890;2023-02-13T05:34:50;41.81;39.92;48.91;;
60031;Laerm;45901;47.600;9.890;2023-02-13T05:37:17;41.85;40.13;49.96;;
60031;Laerm;45901;47.600;9.890;2023-02-13T05:39:44;41.84;39.81;48.92;;
60031;Laerm;45901;47.600;9.890;2023-02-13T05:42:12;41.78;39.81;47.08;;
60031;Laerm;45901;47.600;9.890;2023-02-13T05:44:39;41.95;39.92;49.73;;
60031;Laerm;45901;47.600;9.890;2023-02-13T05:47:06;41.80;40.03;49.92;;
60031;Laerm;45901;47.600;9.890;2023-02-13T05:49:34;41.77;39.92;45.23;;
60031;Laerm;45901;47.600;9.890;2023-02-13T05:52:02;41.79;39.81;49.90;;
60031;Laerm;45901;47.600;9.890;2023-02-13T05:54:29;41.87;39.92;48.80;;
60031;Laerm;45901;47.600;9.890;2023-02-13T05:56:56;41.99;40.03;51.96;;
60031;Laerm;45901;47.600;9.890;2023-02-13T05:59:23;41.80;39.81;47.12;;
60031;Laerm;45901;47.600;9.890;2023-02-13T06:01:50;41.79;40.03;47.32;;
60031;Laerm;45901;47.600;9.890;2023-02-13T06:04:18;41.73;39.81;45.94;;
60031;Laerm;45901;47.600;9.890;2023-02-13T06:06:46;41.85;39.92;45.97;;
60031;Laerm;45901;47.600;9.890;2023-02-13T06:09:13;41.67;39.58;44.94;;
60031;Laerm;45901;47.600;9.890;2023-02-13T06:11:41;41.73;39.58;48.52;;
60031;Laerm;45901;47.600;9.890;2023-02-13T06:14:08;41.68;39.81;47.79;;
60031;Laerm;45901;47.600;9.890;2023-02-13T06:16:35;41.70;39.58;47.76;;
60031;Laerm;45901;47.600;9.890;2023-02-13T06:19:02;41.68;39.92;48.51;;
60031;Laerm;45901;47.600;9.890;2023-02-13T06:21:29;41.72;39.70;46.93;;
60031;Laerm;45901;47.600;9.890;2023-02-13T06:23:59;41.64;39.92;49.94;;
60031;Laerm;45901;47.600;9.890;2023-02-13T06:26:26;41.61;39.46;46.15;;
60031;Laerm;45901;47.600;9.890;2023-02-13T06:28:53;41.57;39.70;46.13;;
60031;Laerm;45901;47.600;9.890;2023-02-13T06:31:21;41.61;39.46;50.58;;
60031;Laerm;45901;47.600;9.890;2023-02-13T06:33:48;41.67;39.46;46.18;;
60031;Laerm;45901;47.600;9.890;2023-02-13T06:36:15;41.70;39.11;47.61;;
60031;Laerm;45901;47.600;9.890;2023-02-13T06:38:42;41.63;39.57;48.51;;
60031;Laerm;45901;47.600;9.890;2023-02-13T06:41:11;41.69;39.81;49.24;;
60031;Laerm;45901;47.600;9.890;2023-02-13T06:43:38;41.62;39.58;46.57;;
60031;Laerm;45901;47.600;9.890;2023-02-13T06:46:05;41.54;39.34;50.26;;
60031;Laerm;45901;47.600;9.890;2023-02-13T06:48:33;41.54;39.81;47.16;;
60031;Laerm;45901;47.600;9.890;2023-02-13T06:51:00;41.57;39.70;48.32;;
60031;Laerm;45901;47.600;9.890;2023-02-13T06:53:27;41.62;39.70;46.59;;
60031;Laerm;45901;47.600;9.890;2023-02-13T06:55:55;41.54;39.70;45.17;;
60031;Laerm;45901;47.600;9.890;2023-02-13T06:58:24;41.53;39.34;44.19;;
60031;Laerm;45901;47.600;9.890;2023-02-13T07:00:52;41.63;39.70;47.42;;
60031;Laerm;45901;47.600;9.890;2023-02-13T07:03:19;41.55;39.70;46.62;;
60031;Laerm;45901;47.600;9.890;2023-02-13T07:05:46;41.49;39.58;46.55;;
60031;Laerm;45901;47.600;9.890;2023-02-13T07:08:17;41.53;39.70;44.90;;
60031;Laerm;45901;47.600;9.890;2023-02-13T07:10:44;41.58;39.58;47.90;;
60031;Laerm;45901;47.600;9.890;2023-02-13T07:13:11;41.52;39.34;46.69;;
60031;Laerm;45901;47.600;9.890;2023-02-13T07:15:40;41.57;39.92;51.17;;
60031;Laerm;45901;47.600;9.890;2023-02-13T07:18:08;41.53;39.70;45.89;;
60031;Laerm;45901;47.600;9.890;2023-02-13T07:20:35;41.54;39.57;44.47;;
60031;Laerm;45901;47.600;9.890;2023-02-13T07:23:04;41.64;39.70;46.73;;
60031;Laerm;45901;47.600;9.890;2023-02-13T07:25:32;41.85;39.70;49.96;;
60031;Laerm;45901;47.600;9.890;2023-02-13T07:28:03;41.62;39.81;45.23;;
60031;Laerm;45901;47.600;9.890;2023-02-13T07:30:32;41.67;39.81;48.34;;
60031;Laerm;45901;47.600;9.890;2023-02-13T07:33:02;42.09;39.70;67.86;;
60031;Laerm;45901;47.600;9.890;2023-02-13T07:35:30;42.39;40.23;47.52;;
60031;Laerm;45901;47.600;9.890;2023-02-13T07:37:57;42.82;41.06;49.82;;
60031;Laerm;45901;47.600;9.890;2023-02-13T07:40:25;42.67;40.71;47.98;;
60031;Laerm;45901;47.600;9.890;2023-02-13T07:42:52;42.48;40.98;47.40;;
60031;Laerm;45901;47.600;9.890;2023-02-13T07:45:19;42.60;40.71;47.52;;
60031;Laerm;45901;47.600;9.890;2023-02-13T07:47:46;42.69;40.98;46.89;;
60031;Laerm;45901;47.600;9.890;2023-02-13T07:50:15;42.38;39.58;48.18;;
60031;Laerm;45901;47.600;9.890;2023-02-13T07:52:42;41.34;39.34;46.10;;
60031;Laerm;45901;47.600;9.890;2023-02-13T07:55:09;41.05;39.21;43.77;;
60031;Laerm;45901;47.600;9.890;2023-02-13T07:57:37;40.84;38.52;45.07;;
60031;Laerm;45901;47.600;9.890;2023-02-13T08:00:06;40.88;38.81;42.98;;
60031;Laerm;45901;47.600;9.890;2023-02-13T08:02:34;40.86;38.95;44.51;;
60031;Laerm;45901;47.600;9.890;2023-02-13T08:05:01;40.93;38.95;44.11;;
60031;Laerm;45901;47.600;9.890;2023-02-13T08:07:29;40.88;38.95;44.31;;
60031;Laerm;45901;47.600;9.890;2023-02-13T08:09:57;40.97;39.08;44.47;;
60031;Laerm;45901;47.600;9.890;2023-02-13T08:12:42;40.98;38.95;46.62;;
60031;Laerm;45901;47.600;9.890;2023-02-13T08:15:12;40.92;38.95;44.65;;
60031;Laerm;45901;47.600;9.890;2023-02-13T08:17:39;41.00;39.08;45.45;;
60031;Laerm;45901;47.600;9.890;2023-02-13T08:20:08;41.08;39.08;48.67;;
60031;Laerm;45901;47.600;9.890;2023-02-13T08:22:38;41.40;39.08;45.01;;
60031;Laerm;45901;47.600;9.890;2023-02-13T08:25:06;41.42;39.08;44.39;;
60031;Laerm;45901;47.600;9.890;2023-02-13T08:27:33;41.13;39.34;44.87;;
60031;Laerm;45901;47.600;9.890;2023-02-13T08:30:01;41.15;39.34;49.69;;
60031;Laerm;45901;47.600;9.890;2023-02-13T08:32:28;41.19;39.08;43.99;;
60031;Laerm;45901;47.600;9.890;2023-02-13T08:34:56;42.20;39.81;48.51;;
60031;Laerm;45901;47.600;9.890;2023-02-13T08:37:23;42.03;40.43;44.23;;
60031;Laerm;45901;47.600;9.890;2023-02-13T08:39:51;42.03;40.03;46.66;;
60031;Laerm;45901;47.600;9.890;2023-02-13T08:42:19;42.04;40.33;44.07;;
60031;Laerm;45901;47.600;9.890;2023-02-13T08:44:46;42.08;40.13;47.96;;
60031;Laerm;45901;47.600;9.890;2023-02-13T08:47:13;41.09;38.37;43.39;;
60031;Laerm;45901;47.600;9.890;2023-02-13T08:49:40;40.96;38.81;44.19;;
60031;Laerm;45901;47.600;9.890;2023-02-13T08:52:07;40.92;39.21;43.99;;
60031;Laerm;45901;47.600;9.890;2023-02-13T08:54:34;41.08;39.21;46.80;;
60031;Laerm;45901;47.600;9.890;2023-02-13T08:57:03;40.99;38.81;44.01;;
60031;Laerm;45901;47.600;9.890;2023-02-13T08:59:30;40.98;38.81;44.39;;
60031;Laerm;45901;47.600;9.890;2023-02-13T09:01:57;40.92;39.21;45.27;;
60031;Laerm;45901;47.600;9.890;2023-02-13T09:04:25;40.93;39.08;43.29;;
60031;Laerm;45901;47.600;9.890;2023-02-13T09:06:52;40.90;38.52;43.34;;
60031;Laerm;45901;47.600;9.890;2023-02-13T09:09:20;40.78;38.37;44.07;;
60031;Laerm;45901;47.600;9.890;2023-02-13T09:11:47;40.46;38.05;43.99;;
60031;Laerm;45901;47.600;9.890;2023-02-13T09:14:17;40.30;38.37;43.94;;
60031;Laerm;45901;47.600;9.890;2023-02-13T09:16:44;40.33;38.05;45.51;;
60031;Laerm;45901;47.600;9.890;2023-02-13T09:19:11;40.30;38.05;44.54;;
60031;Laerm;45901;47.600;9.890;2023-02-13T09:21:38;40.36;37.12;44.62;;
60031;Laerm;45901;47.600;9.890;2023-02-13T09:24:07;40.35;37.88;42.47;;
60031;Laerm;45901;47.600;9.890;2023-02-13T09:26:34;40.34;37.88;45.39;;
60031;Laerm;45901;47.600;9.890;2023-02-13T09:29:02;40.34;37.88;42.65;;
60031;Laerm;45901;47.600;9.890;2023-02-13T09:31:30;40.39;37.52;43.39;;
60031;Laerm;45901;47.600;9.890;2023-02-13T09:33:57;40.35;37.88;42.98;;
60031;Laerm;45901;47.600;9.890;2023-02-13T09:36:24;40.42;37.88;45.89;;
60031;Laerm;45901;47.600;9.890;2023-02-13T09:38:54;40.39;38.05;43.29;;
60031;Laerm;45901;47.600;9.890;2023-02-13T09:41:24;40.32;37.88;42.41;;
60031;Laerm;45901;47.600;9.890;2023-02-13T09:43:55;40.48;38.21;43.05;;
60031;Laerm;45901;47.600;9.890;2023-02-13T09:46:30;40.51;37.88;44.23;;
60031;Laerm;45901;47.600;9.890;2023-02-13T09:49:04;40.45;37.52;42.47;;
60031;Laerm;45901;47.600;9.890;2023-02-13T09:51:34;41.16;38.37;44.47;;
60031;Laerm;45901;47.600;9.890;2023-02-13T09:54:03;41.32;38.37;45.23;;
60031;Laerm;45901;47.600;9.890;2023-02-13T09:56:39;41.81;38.81;44.47;;
60031;Laerm;45901;47.600;9.890;2023-02-13T09:59:29;41.38;38.81;44.80;;
60031;Laerm;45901;47.600;9.890;2023-02-13T10:02:13;41.40;37.88;44.51;;
60031;Laerm;45901;47.600;9.890;2023-02-13T10:04:50;40.32;37.52;42.03;;
60031;Laerm;45901;47.600;9.890;2023-02-13T10:07:38;40.27;37.12;43.24;;
60031;Laerm;45901;47.600;9.890;2023-02-13T10:10:18;40.32;37.70;42.53;;
60031;Laerm;45901;47.600;9.890;2023-02-13T10:12:59;40.36;37.88;46.84;;
60031;Laerm;45901;47.600;9.890;2023-02-13T10:15:39;40.46;37.88;45.80;;
60031;Laerm;45901;47.600;9.890;2023-02-13T10:18:14;40.43;37.70;42.35;;
60031;Laerm;45901;47.600;9.890;2023-02-13T10:20:46;40.47;38.37;43.72;;
60031;Laerm;45901;47.600;9.890;2023-02-13T10:23:21;40.51;37.70;47.02;;
60031;Laerm;45901;47.600;9.890;2023-02-13T10:25:56;40.50;38.21;45.36;;
60031;Laerm;45901;47.600;9.890;2023-02-13T10:28:32;40.09;36.91;42.03;;
60031;Laerm;45901;47.600;9.890;2023-02-13T10:31:05;40.20;36.91;45.14;;
60031;Laerm;45901;47.600;9.890;2023-02-13T10:33:41;40.04;36.20;53.90;;
60031;Laerm;45901;47.600;9.890;2023-02-13T10:36:18;39.69;36.20;44.27;;
60031;Laerm;45901;47.600;9.890;2023-02-13T10:38:56;40.14;36.69;44.27;;
60031;Laerm;45901;47.600;9.890;2023-02-13T10:41:29;39.89;35.94;41.89;;
60031;Laerm;45901;47.600;9.890;2023-02-13T10:44:33;39.93;36.91;43.04;;
60031;Laerm;45901;47.600;9.890;2023-02-13T10:47:15;40.12;37.32;44.94;;
60031;Laerm;45901;47.600;9.890;2023-02-13T10:50:01;40.31;37.12;44.39;;
60031;Laerm;45901;47.600;9.890;2023-02-13T10:52:41;40.44;37.32;43.04;;
60031;Laerm;45901;47.600;9.890;2023-02-13T10:58:11;39.90;36.20;43.72;;
60031;Laerm;45901;47.600;9.890;2023-02-13T11:00:45;41.03;36.91;49.97;;
60031;Laerm;45901;47.600;9.890;2023-02-13T11:03:19;40.30;36.91;46.25;;
60031;Laerm;45901;47.600;9.890;2023-02-13T11:05:49;40.52;37.88;43.19;;
60031;Laerm;45901;47.600;9.890;2023-02-13T11:08:21;40.23;37.12;44.54;;
60031;Laerm;45901;47.600;9.890;2023-02-13T11:10:50;40.19;37.52;44.97;;
60031;Laerm;45901;47.600;9.890;2023-02-13T11:13:20;40.10;37.12;47.18;;
60031;Laerm;45901;47.600;9.890;2023-02-13T11:15:58;39.87;36.91;45.14;;
60031;Laerm;45901;47.600;9.890;2023-02-13T11:18:28;39.77;36.91;42.88;;
60031;Laerm;45901;47.600;9.890;2023-02-13T11:21:05;39.89;36.69;43.72;;
60031;Laerm;45901;47.600;9.890;2023-02-13T11:23:38;39.74;36.69;44.69;;
60031;Laerm;45901;47.600;9.890;2023-02-13T11:26:08;39.98;35.94;47.08;;
60031;Laerm;45901;47.600;9.890;2023-02-13T11:28:43;39.56;36.20;46.02;;
60031;Laerm;45901;47.600;9.890;2023-02-13T11:31:24;39.61;36.20;51.55;;
60031;Laerm;45901;47.600;9.890;2023-02-13T11:33:52;39.55;36.45;42.41;;
60031;Laerm;45901;47.600;9.890;2023-02-13T11:36:29;40.21;36.20;55.90;;
60031;Laerm;45901;47.600;9.890;2023-02-13T11:39:03;39.85;36.45;52.79;;
60031;Laerm;45901;47.600;9.890;2023-02-13T11:41:38;39.76;36.45;42.82;;
60031;Laerm;45901;47.600;9.890;2023-02-13T11:44:18;39.46;35.66;44.65;;
60031;Laerm;45901;47.600;9.890;2023-02-13T11:46:48;39.92;35.94;46.87;;
60031;Laerm;45901;47.600;9.890;2023-02-13T11:49:19;39.27;35.66;49.95;;
60031;Laerm;45901;47.600;9.890;2023-02-13T11:51:50;39.59;36.20;48.81;;
60031;Laerm;45901;47.600;9.890;2023-02-13T11:54:29;39.79;35.66;48.98;;
60031;Laerm;45901;47.600;9.890;2023-02-13T11:57:00;39.53;36.20;48.71;;
60031;Laerm;45901;47.600;9.890;2023-02-13T11:59:32;39.88;35.36;60.02;;
60031;Laerm;45901;47.600;9.890;2023-02-13T12:02:14;39.87;35.94;46.55;;
60031;Laerm;45901;47.600;9.890;2023-02-13T12:04:41;39.87;35.66;49.14;;
60031;Laerm;45901;47.600;9.890;2023-02-13T12:07:18;39.69;35.94;46.73;;
60031;Laerm;45901;47.600;9.890;2023-02-13T12:09:52;39.55;35.94;51.25;;
60031;Laerm;45901;47.600;9.890;2023-02-13T12:12:28;39.39;35.66;48.37;;
60031;Laerm;45901;47.600;9.890;2023-02-13T12:14:57;39.70;36.20;45.94;;
60031;Laerm;45901;47.600;9.890;2023-02-13T12:17:29;39.78;35.94;47.28;;
60031;Laerm;45901;47.600;9.890;2023-02-13T12:19:58;39.90;36.20;47.98;;
60031;Laerm;45901;47.600;9.890;2023-02-13T12:22:35;39.46;35.59;44.69;;
60031;Laerm;45901;47.600;9.890;2023-02-13T12:25:47;40.84;36.20;46.57;;
60031;Laerm;45901;47.600;9.890;2023-02-13T12:28:27;39.09;35.94;43.09;;
60031;Laerm;45901;47.600;9.890;2023-02-13T12:31:41;39.28;35.36;46.52;;
60031;Laerm;45901;47.600;9.890;2023-02-13T12:34:35;39.94;36.20;46.76;;
60031;Laerm;45901;47.600;9.890;2023-02-13T12:37:18;39.29;36.34;46.35;;
60031;Laerm;45901;47.600;9.890;2023-02-13T12:40:06;39.21;36.20;41.68;;
60031;Laerm;45901;47.600;9.890;2023-02-13T12:42:47;39.46;36.45;44.03;;
60031;Laerm;45901;47.600;9.890;2023-02-13T12:45:33;42.00;36.45;52.34;;
60031;Laerm;45901;47.600;9.890;2023-02-13T12:48:20;39.21;35.94;43.09;;
60031;Laerm;45901;47.600;9.890;2023-02-13T12:50:58;40.56;36.45;43.19;;
60031;Laerm;45901;47.600;9.890;2023-02-13T12:53:59;39.68;37.12;43.19;;
60031;Laerm;45901;47.600;9.890;2023-02-13T12:56:48;39.33;36.69;42.09;;
60031;Laerm;45901;47.600;9.890;2023-02-13T12:59:29;39.79;36.98;48.63;;
60031;Laerm;45901;47.600;9.890;2023-02-13T13:02:31;40.76;36.69;51.64;;
60031;Laerm;45901;47.600;9.890;2023-02-13T13:05:16;39.95;36.69;50.96;;
60031;Laerm;45901;47.600;9.890;2023-02-13T13:08:00;40.77;37.12;53.56;;
60031;Laerm;45901;47.600;9.890;2023-02-13T13:10:49;40.26;36.91;50.24;;
60031;Laerm;45901;47.600;9.890;2023-02-13T13:13:36;39.46;36.91;43.99;;
60031;Laerm;45901;47.600;9.890;2023-02-13T13:16:15;39.72;36.45;47.12;;
60031;Laerm;45901;47.600;9.890;2023-02-13T13:18:56;39.77;36.45;43.49;;
60031;Laerm;45901;47.600;9.890;2023-02-13T13:21:37;42.04;38.05;46.28;;
60031;Laerm;45901;47.600;9.890;2023-02-13T13:24:22;39.79;36.45;44.65;;
60031;Laerm;45901;47.600;9.890;2023-02-13T13:26:51;40.06;36.69;45.48;;
60031;Laerm;45901;47.600;9.890;2023-02-13T13:29:23;39.73;37.12;49.74;;
60031;Laerm;45901;47.600;9.890;2023-02-13T13:31:54;41.83;36.69;59.60;;
60031;Laerm;45901;47.600;9.890;2023-02-13T13:34:25;40.97;36.45;60.73;;
60031;Laerm;45901;47.600;9.890;2023-02-13T13:36:58;40.07;36.91;46.20;;
60031;Laerm;45901;47.600;9.890;2023-02-13T13:39:40;39.38;36.45;59.18;;
60031;Laerm;45901;47.600;9.890;2023-02-13T13:42:16;40.15;36.91;45.94;;
60031;Laerm;45901;47.600;9.890;2023-02-13T13:45:31;39.95;35.94;54.07;;
60031;Laerm;45901;47.600;9.890;2023-02-13T13:48:57;40.00;35.94;44.07;;
60031;Laerm;45901;47.600;9.890;2023-02-13T13:51:26;39.34;36.20;44.31;;
60031;Laerm;45901;47.600;9.890;2023-02-13T13:54:32;39.38;36.20;45.36;;
60031;Laerm;45901;47.600;9.890;2023-02-13T13:57:09;39.80;37.12;46.80;;
60031;Laerm;45901;47.600;9.890;2023-02-13T14:00:27;40.33;36.91;48.90;;
60031;Laerm;45901;47.600;9.890;2023-02-13T14:03:23;39.34;36.45;44.65;;
60031;Laerm;45901;47.600;9.890;2023-02-13T14:06:01;39.74;36.20;45.45;;
60031;Laerm;45901;47.600;9.890;2023-02-13T14:09:06;39.82;36.45;43.94;;
60031;Laerm;45901;47.600;9.890;2023-02-13T14:11:40;39.81;36.45;44.87;;
60031;Laerm;45901;47.600;9.890;2023-02-13T14:14:51;39.71;36.10;47.30;;
60031;Laerm;45901;47.600;9.890;2023-02-13T14:17:50;39.46;36.20;42.98;;
60031;Laerm;45901;47.600;9.890;2023-02-13T14:20:34;39.80;36.69;46.38;;
60031;Laerm;45901;47.600;9.890;2023-02-13T14:23:25;39.60;36.20;43.77;;
60031;Laerm;45901;47.600;9.890;2023-02-13T14:26:11;40.14;37.12;48.98;;
60031;Laerm;45901;47.600;9.890;2023-02-13T14:28:40;40.42;37.32;43.99;;